Time;durP1;ratioP1;P1;durP2;ratioP2;P2;SDS_P1;SDS_P2;PMS_P1;PMS_P2;Temp;Humidity;BMP_temperature;BMP_pressure;BME280_temperature;BME280_humidity;BME280_pressure;Samples;Min_cycle;Max_cycle;Signal;HPM_P1;HPM_P2
2021/04/22 00:01:01;;;;;;;37.13;16.95;;;;;;;;;;5094028;28;20077;-64
2021/04/22 00:03:27;;;;;;;38.20;18.48;;;;;;;;;;5074663;28;20119;-66
2021/04/22 00:05:53;;;;;;;25.67;15.50;;;;;;;;;;5105835;28;20030;-64
2021/04/22 00:08:19;;;;;;;28.55;15.48;;;;;;;;;;5113271;28;20517;-63
2021/04/22 00:10:49;;;;;;;34.10;17.83;;;;;;;;;;5097662;28;20070;-65
2021/04/22 00:13:20;;;;;;;30.33;15.73;;;;;;;;;;5103684;28;20491;-65
2021/04/22 00:15:47;;;;;;;30.67;16.08;;;;;;;;;;5112350;28;20151;-64
2021/04/22 00:18:13;;;;;;;32.20;16.15;;;;;;;;;;5113067;28;20035;-65
2021/04/22 00:20:39;;;;;;;28.73;16.05;;;;;;;;;;5098802;28;20474;-66
2021/04/22 00:23:09;;;;;;;28.20;15.40;;;;;;;;;;5074967;28;20042;-65
2021/04/22 00:25:36;;;;;;;28.00;16.40;;;;;;;;;;5105972;28;20501;-64
2021/04/22 00:28:03;;;;;;;32.28;15.80;;;;;;;;;;5104783;28;20035;-64
2021/04/22 00:30:29;;;;;;;32.05;16.00;;;;;;;;;;5092534;28;20028;-65
2021/04/22 00:32:55;;;;;;;39.42;17.02;;;;;;;;;;5098771;28;20060;-65
2021/04/22 00:35:21;;;;;;;37.03;16.65;;;;;;;;;;5113170;28;20058;-64
2021/04/22 00:37:47;;;;;;;35.85;18.10;;;;;;;;;;5107896;28;20031;-65
2021/04/22 00:40:16;;;;;;;35.25;17.00;;;;;;;;;;5100770;28;20032;-63
2021/04/22 00:42:42;;;;;;;34.00;17.92;;;;;;;;;;5092352;28;20028;-64
2021/04/22 00:45:08;;;;;;;41.55;17.05;;;;;;;;;;5092646;28;20059;-65
2021/04/22 00:47:36;;;;;;;31.73;16.50;;;;;;;;;;5110847;28;20164;-65
2021/04/22 00:50:02;;;;;;;33.17;15.85;;;;;;;;;;5091126;28;20041;-64
2021/04/22 00:52:28;;;;;;;31.00;16.83;;;;;;;;;;5107642;28;20023;-64
2021/04/22 00:54:54;;;;;;;35.40;19.17;;;;;;;;;;5092043;28;20028;-65
2021/04/22 00:57:20;;;;;;;38.75;18.98;;;;;;;;;;5099692;28;20606;-65
2021/04/22 00:59:46;;;;;;;40.25;19.30;;;;;;;;;;5112366;28;20055;-66
2021/04/22 01:02:16;;;;;;;41.17;19.10;;;;;;;;;;5102058;28;20036;-64
2021/04/22 01:04:49;;;;;;;41.00;20.38;;;;;;;;;;5091798;28;20532;-64
2021/04/22 01:07:15;;;;;;;50.05;21.65;;;;;;;;;;5102211;28;20028;-64
2021/04/22 01:09:42;;;;;;;46.67;21.35;;;;;;;;;;5112333;28;20159;-66
2021/04/22 01:12:09;;;;;;;40.75;22.40;;;;;;;;;;5104284;28;20028;-63
2021/04/22 01:14:35;;;;;;;37.17;19.23;;;;;;;;;;5112127;28;20028;-64
2021/04/22 01:17:01;;;;;;;39.47;19.95;;;;;;;;;;5104728;28;20095;-66
2021/04/22 01:19:27;;;;;;;42.60;21.02;;;;;;;;;;5094232;28;20036;-65
2021/04/22 01:21:54;;;;;;;46.20;20.95;;;;;;;;;;5111882;28;20042;-65
2021/04/22 01:24:20;;;;;;;35.60;19.88;;;;;;;;;;5110678;28;20047;-65
2021/04/22 01:26:46;;;;;;;40.28;19.48;;;;;;;;;;5091518;28;20035;-64
2021/04/22 01:29:13;;;;;;;36.30;19.50;;;;;;;;;;5091250;28;20059;-64
2021/04/22 01:31:39;;;;;;;37.28;20.00;;;;;;;;;;5110963;28;20042;-64
2021/04/22 01:34:09;;;;;;;39.45;19.92;;;;;;;;;;5112475;28;20030;-64
2021/04/22 01:36:39;;;;;;;39.10;19.70;;;;;;;;;;5112905;28;20028;-64
2021/04/22 01:39:06;;;;;;;39.20;18.42;;;;;;;;;;5114679;28;20485;-65
2021/04/22 01:41:32;;;;;;;36.08;17.92;;;;;;;;;;5099397;28;20081;-65
2021/04/22 01:43:58;;;;;;;40.70;18.95;;;;;;;;;;5114384;28;20106;-65
2021/04/22 01:46:24;;;;;;;41.55;17.98;;;;;;;;;;5098255;28;20085;-64
2021/04/22 01:48:51;;;;;;;41.47;20.63;;;;;;;;;;5094185;28;20028;-66
2021/04/22 01:51:17;;;;;;;34.75;18.27;;;;;;;;;;5095271;28;20024;-65
2021/04/22 01:53:43;;;;;;;39.85;20.38;;;;;;;;;;5103983;28;20103;-65
2021/04/22 01:56:09;;;;;;;30.38;17.70;;;;;;;;;;5114362;28;20069;-66
2021/04/22 01:58:35;;;;;;;39.65;18.75;;;;;;;;;;5105908;28;20375;-65
2021/04/22 02:01:01;;;;;;;37.17;18.63;;;;;;;;;;5094057;28;20052;-65
2021/04/22 02:03:32;;;;;;;37.00;19.05;;;;;;;;;;5100339;28;20085;-65
2021/04/22 02:05:58;;;;;;;41.17;18.92;;;;;;;;;;5114653;28;20027;-65
2021/04/22 02:08:24;;;;;;;33.28;19.20;;;;;;;;;;5112394;28;20410;-66
2021/04/22 02:10:50;;;;;;;33.95;18.65;;;;;;;;;;5114224;28;20034;-65
2021/04/22 02:13:18;;;;;;;38.78;19.50;;;;;;;;;;5110630;28;20030;-65
2021/04/22 02:15:45;;;;;;;35.55;18.40;;;;;;;;;;5113899;28;20028;-64
2021/04/22 02:18:11;;;;;;;39.38;19.75;;;;;;;;;;5093338;28;20024;-65
2021/04/22 02:20:37;;;;;;;41.05;20.33;;;;;;;;;;5093976;28;20044;-65
2021/04/22 02:23:05;;;;;;;32.72;19.05;;;;;;;;;;5094749;28;20031;-64
2021/04/22 02:25:31;;;;;;;36.75;20.63;;;;;;;;;;5106137;28;20055;-65
2021/04/22 02:27:58;;;;;;;33.55;18.73;;;;;;;;;;5114016;28;20073;-65
2021/04/22 02:30:24;;;;;;;32.05;19.10;;;;;;;;;;5110342;28;20028;-64
2021/04/22 02:32:50;;;;;;;32.70;17.75;;;;;;;;;;5109728;28;20104;-64
2021/04/22 02:35:17;;;;;;;41.05;19.60;;;;;;;;;;5093553;28;20081;-65
2021/04/22 02:37:43;;;;;;;36.65;20.08;;;;;;;;;;5095309;28;20015;-65
2021/04/22 02:40:11;;;;;;;40.97;20.48;;;;;;;;;;5093829;28;20028;-65
2021/04/22 02:42:37;;;;;;;35.35;18.33;;;;;;;;;;5098347;28;20031;-64
2021/04/22 02:45:08;;;;;;;32.25;18.85;;;;;;;;;;5111837;28;20031;-66
2021/04/22 02:47:34;;;;;;;35.05;19.33;;;;;;;;;;5109371;28;20024;-65
2021/04/22 02:50:00;;;;;;;35.33;18.73;;;;;;;;;;5093094;28;20039;-64
2021/04/22 02:52:27;;;;;;;33.47;16.98;;;;;;;;;;5110678;28;20043;-65
2021/04/22 02:54:53;;;;;;;40.92;17.88;;;;;;;;;;5095379;28;20020;-66
2021/04/22 02:57:19;;;;;;;37.63;20.25;;;;;;;;;;5094198;28;20106;-65
2021/04/22 02:59:45;;;;;;;33.63;19.60;;;;;;;;;;5093037;28;20024;-66
2021/04/22 03:02:11;;;;;;;41.17;20.60;;;;;;;;;;5110041;28;20102;-65
2021/04/22 03:04:37;;;;;;;36.05;20.10;;;;;;;;;;5113590;28;20377;-64
2021/04/22 03:07:03;;;;;;;31.38;17.75;;;;;;;;;;5097579;28;20032;-65
2021/04/22 03:09:29;;;;;;;34.10;18.92;;;;;;;;;;5092699;28;20052;-65
2021/04/22 03:11:55;;;;;;;38.67;19.52;;;;;;;;;;5106207;28;20051;-66
2021/04/22 03:14:21;;;;;;;32.60;18.40;;;;;;;;;;5113121;28;20019;-65
2021/04/22 03:16:47;;;;;;;38.63;18.02;;;;;;;;;;5101068;28;20047;-65
2021/04/22 03:19:13;;;;;;;36.40;18.83;;;;;;;;;;5092920;28;20020;-66
2021/04/22 03:21:40;;;;;;;34.83;19.95;;;;;;;;;;5102736;28;20031;-65
2021/04/22 03:24:06;;;;;;;29.63;17.45;;;;;;;;;;5111433;28;20086;-64
2021/04/22 03:26:32;;;;;;;36.17;18.30;;;;;;;;;;5112951;28;20032;-64
2021/04/22 03:28:58;;;;;;;34.50;17.30;;;;;;;;;;5108983;28;20032;-64
2021/04/22 03:31:25;;;;;;;36.55;17.70;;;;;;;;;;5091905;28;20417;-65
2021/04/22 03:33:51;;;;;;;27.23;15.82;;;;;;;;;;5094374;28;20022;-63
2021/04/22 03:36:17;;;;;;;32.42;17.02;;;;;;;;;;5112937;28;20028;-65
2021/04/22 03:38:43;;;;;;;30.30;16.45;;;;;;;;;;5111171;28;20027;-64
2021/04/22 03:41:09;;;;;;;34.63;16.88;;;;;;;;;;5092467;28;20077;-66
2021/04/22 03:43:35;;;;;;;32.15;16.80;;;;;;;;;;5092378;28;20028;-64
2021/04/22 03:46:01;;;;;;;27.08;15.75;;;;;;;;;;5111062;28;20250;-65
2021/04/22 03:48:28;;;;;;;33.83;17.10;;;;;;;;;;5112806;28;20049;-64
2021/04/22 03:50:54;;;;;;;32.83;17.58;;;;;;;;;;5094040;28;20036;-65
2021/04/22 03:53:20;;;;;;;27.00;16.30;;;;;;;;;;5092331;28;20398;-66
2021/04/22 03:55:46;;;;;;;34.53;18.13;;;;;;;;;;5108672;28;20028;-65
2021/04/22 03:58:12;;;;;;;28.92;15.00;;;;;;;;;;5104435;28;20024;-66
2021/04/22 04:00:38;;;;;;;23.20;15.02;;;;;;;;;;5092203;28;20027;-64
2021/04/22 04:03:04;;;;;;;23.13;12.93;;;;;;;;;;5094731;28;20052;-64
2021/04/22 04:05:30;;;;;;;21.15;13.50;;;;;;;;;;5092030;28;20028;-64
2021/04/22 04:07:56;;;;;;;18.75;12.55;;;;;;;;;;5099629;28;20054;-65
2021/04/22 04:10:23;;;;;;;23.00;14.18;;;;;;;;;;5112455;28;20035;-65
2021/04/22 04:12:49;;;;;;;19.85;12.90;;;;;;;;;;5106066;28;20024;-65
2021/04/22 04:15:16;;;;;;;20.00;12.05;;;;;;;;;;5092127;28;20111;-65
2021/04/22 04:17:42;;;;;;;21.67;12.70;;;;;;;;;;5096918;28;20024;-65
2021/04/22 04:20:09;;;;;;;17.08;12.18;;;;;;;;;;5111944;28;20027;-64
2021/04/22 04:22:36;;;;;;;21.77;12.70;;;;;;;;;;5092078;28;20024;-65
2021/04/22 04:25:02;;;;;;;21.70;13.40;;;;;;;;;;5092100;28;20024;-65
2021/04/22 04:27:28;;;;;;;22.90;13.98;;;;;;;;;;5110722;28;20107;-65
2021/04/22 04:29:54;;;;;;;28.23;13.60;;;;;;;;;;5112572;28;20026;-65
2021/04/22 04:32:20;;;;;;;21.55;13.60;;;;;;;;;;5093924;28;20035;-65
2021/04/22 04:34:46;;;;;;;25.00;14.65;;;;;;;;;;5091760;28;20070;-65
2021/04/22 04:37:12;;;;;;;27.42;15.50;;;;;;;;;;5108321;28;20047;-64
2021/04/22 04:39:38;;;;;;;28.30;14.40;;;;;;;;;;5112183;28;20030;-65
2021/04/22 04:42:04;;;;;;;24.38;15.40;;;;;;;;;;5099089;28;20484;-64
2021/04/22 04:44:30;;;;;;;28.02;14.75;;;;;;;;;;5095708;28;20028;-65
2021/04/22 04:46:56;;;;;;;23.98;13.50;;;;;;;;;;5095682;28;20129;-65
2021/04/22 04:49:23;;;;;;;24.55;14.68;;;;;;;;;;5096389;28;20035;-64
2021/04/22 04:51:49;;;;;;;27.05;15.25;;;;;;;;;;5106533;28;20027;-65
2021/04/22 04:54:15;;;;;;;23.88;14.00;;;;;;;;;;5113062;28;20390;-64
2021/04/22 04:56:41;;;;;;;27.90;15.30;;;;;;;;;;5095372;28;20028;-66
2021/04/22 04:59:07;;;;;;;27.38;14.98;;;;;;;;;;5099398;28;20050;-63
2021/04/22 05:01:33;;;;;;;25.00;14.60;;;;;;;;;;5115732;28;20489;-66
2021/04/22 05:03:59;;;;;;;23.60;14.18;;;;;;;;;;5112615;28;20425;-65
2021/04/22 05:06:25;;;;;;;23.10;14.23;;;;;;;;;;5095135;28;20024;-65
2021/04/22 05:08:51;;;;;;;24.10;14.98;;;;;;;;;;5095476;28;20119;-64
2021/04/22 05:11:17;;;;;;;21.67;14.10;;;;;;;;;;5115499;28;20031;-66
2021/04/22 05:13:44;;;;;;;24.50;13.73;;;;;;;;;;5115523;28;20071;-66
2021/04/22 05:16:10;;;;;;;21.42;12.75;;;;;;;;;;5095431;28;20024;-64
2021/04/22 05:18:36;;;;;;;19.88;12.95;;;;;;;;;;5094868;28;20024;-65
2021/04/22 05:21:02;;;;;;;22.52;14.00;;;;;;;;;;5112760;28;20024;-64
2021/04/22 05:23:28;;;;;;;24.73;14.88;;;;;;;;;;5115312;28;20024;-64
2021/04/22 05:25:55;;;;;;;24.98;14.25;;;;;;;;;;5099105;28;20483;-65
2021/04/22 05:28:22;;;;;;;26.33;15.68;;;;;;;;;;5105439;28;20474;-64
2021/04/22 05:30:48;;;;;;;19.60;13.23;;;;;;;;;;5115148;28;20027;-64
2021/04/22 05:33:14;;;;;;;25.70;15.40;;;;;;;;;;5105372;28;20024;-65
2021/04/22 05:35:41;;;;;;;24.30;14.15;;;;;;;;;;5094610;28;20020;-65
2021/04/22 05:38:07;;;;;;;23.90;14.73;;;;;;;;;;5102013;28;20429;-65
2021/04/22 05:40:34;;;;;;;22.40;13.25;;;;;;;;;;5115018;28;20030;-65
2021/04/22 05:43:00;;;;;;;25.95;14.73;;;;;;;;;;5110989;28;20504;-64
2021/04/22 05:45:26;;;;;;;27.45;15.68;;;;;;;;;;5094453;28;20039;-65
2021/04/22 05:47:53;;;;;;;26.30;15.52;;;;;;;;;;5099461;28;20030;-65
2021/04/22 05:50:20;;;;;;;23.45;13.77;;;;;;;;;;5112997;28;20031;-65
2021/04/22 05:52:46;;;;;;;25.92;16.80;;;;;;;;;;5112301;28;20039;-64
2021/04/22 05:55:13;;;;;;;27.17;16.63;;;;;;;;;;5114450;28;20038;-65
2021/04/22 05:57:39;;;;;;;26.48;15.18;;;;;;;;;;5112874;28;20020;-66
2021/04/22 06:00:06;;;;;;;26.10;15.80;;;;;;;;;;5114555;28;20470;-66
2021/04/22 06:02:32;;;;;;;30.88;16.95;;;;;;;;;;5112517;28;20036;-67
2021/04/22 06:04:58;;;;;;;32.95;17.95;;;;;;;;;;5114543;28;20051;-65
2021/04/22 06:07:24;;;;;;;29.23;16.92;;;;;;;;;;5082098;28;20483;-65
2021/04/22 06:09:51;;;;;;;32.67;17.65;;;;;;;;;;5093903;28;20027;-64
2021/04/22 06:12:17;;;;;;;26.08;16.80;;;;;;;;;;5105820;28;20024;-64
2021/04/22 06:14:43;;;;;;;26.85;16.13;;;;;;;;;;5107114;28;20471;-65
2021/04/22 06:17:09;;;;;;;32.72;18.25;;;;;;;;;;5093827;28;20088;-64
2021/04/22 06:19:36;;;;;;;30.35;18.63;;;;;;;;;;5096876;28;20633;-65
2021/04/22 06:22:02;;;;;;;34.30;18.95;;;;;;;;;;5108587;28;20749;-64
2021/04/22 06:24:28;;;;;;;29.55;17.85;;;;;;;;;;5102078;28;20123;-64
2021/04/22 06:26:55;;;;;;;29.92;18.70;;;;;;;;;;5097180;28;20032;-63
2021/04/22 06:29:21;;;;;;;26.00;17.20;;;;;;;;;;5103051;28;20492;-64
2021/04/22 06:31:48;;;;;;;33.17;17.48;;;;;;;;;;5113267;28;20022;-66
2021/04/22 06:34:14;;;;;;;27.95;17.45;;;;;;;;;;5105655;28;20134;-66
2021/04/22 06:36:41;;;;;;;27.30;16.58;;;;;;;;;;5093468;28;20020;-64
2021/04/22 06:39:07;;;;;;;26.77;16.83;;;;;;;;;;5099612;28;20026;-64
2021/04/22 06:41:34;;;;;;;30.20;18.35;;;;;;;;;;5113780;28;20139;-65
2021/04/22 06:44:00;;;;;;;34.80;16.60;;;;;;;;;;5112104;28;20027;-65
2021/04/22 06:46:26;;;;;;;28.05;17.60;;;;;;;;;;5112896;28;20073;-65
2021/04/22 06:48:52;;;;;;;30.92;16.05;;;;;;;;;;5110050;28;20098;-64
2021/04/22 06:51:18;;;;;;;34.80;17.77;;;;;;;;;;5109283;28;20031;-64
2021/04/22 06:53:44;;;;;;;32.17;17.52;;;;;;;;;;5093240;28;20478;-66
2021/04/22 06:56:10;;;;;;;29.77;18.90;;;;;;;;;;5093308;28;20055;-64
2021/04/22 06:58:37;;;;;;;29.50;18.30;;;;;;;;;;5103953;28;20107;-65
2021/04/22 07:01:03;;;;;;;28.20;17.17;;;;;;;;;;5103316;28;20020;-64
2021/04/22 07:03:29;;;;;;;33.33;16.58;;;;;;;;;;5098772;28;20051;-66
2021/04/22 07:05:55;;;;;;;27.05;16.55;;;;;;;;;;5102051;28;20032;-66
2021/04/22 07:08:21;;;;;;;26.58;17.10;;;;;;;;;;5099415;28;20047;-67
2021/04/22 07:10:48;;;;;;;30.40;16.40;;;;;;;;;;5088595;28;20027;-67
2021/04/22 07:13:14;;;;;;;43.90;16.52;;;;;;;;;;5091247;28;20037;-66
2021/04/22 07:15:40;;;;;;;27.02;14.85;;;;;;;;;;5104092;28;20027;-65
2021/04/22 07:18:06;;;;;;;23.77;15.63;;;;;;;;;;5089014;28;20034;-66
2021/04/22 07:20:36;;;;;;;24.95;14.48;;;;;;;;;;5088416;28;20039;-64
2021/04/22 07:23:03;;;;;;;22.40;15.02;;;;;;;;;;5099660;28;20096;-67
2021/04/22 07:25:32;;;;;;;24.38;14.85;;;;;;;;;;5089067;28;20504;-66
2021/04/22 07:27:59;;;;;;;27.55;15.30;;;;;;;;;;5095363;28;20505;-65
2021/04/22 07:30:25;;;;;;;31.17;14.13;;;;;;;;;;5100780;28;20036;-65
2021/04/22 07:32:52;;;;;;;19.90;14.32;;;;;;;;;;5090219;28;20370;-68
2021/04/22 07:35:19;;;;;;;22.38;13.30;;;;;;;;;;5090153;28;20031;-66
2021/04/22 07:37:45;;;;;;;24.48;12.45;;;;;;;;;;5097685;28;20085;-66
2021/04/22 07:40:14;;;;;;;24.40;13.68;;;;;;;;;;5109243;28;20092;-66
2021/04/22 07:42:40;;;;;;;22.13;13.48;;;;;;;;;;5097640;28;20036;-66
2021/04/22 07:45:07;;;;;;;16.35;10.98;;;;;;;;;;5101414;28;20508;-65
2021/04/22 07:47:33;;;;;;;19.42;12.40;;;;;;;;;;5089313;28;20047;-66
2021/04/22 07:49:59;;;;;;;19.25;11.70;;;;;;;;;;5095370;28;20032;-65
2021/04/22 07:52:26;;;;;;;25.45;12.02;;;;;;;;;;5105836;28;20101;-66
2021/04/22 07:54:53;;;;;;;21.02;11.90;;;;;;;;;;5103595;28;20028;-66
2021/04/22 07:57:19;;;;;;;17.63;11.32;;;;;;;;;;5100107;28;20034;-63
2021/04/22 07:59:45;;;;;;;19.90;11.45;;;;;;;;;;5095817;28;20036;-64
2021/04/22 08:02:12;;;;;;;23.88;12.70;;;;;;;;;;5099016;28;20024;-64
2021/04/22 08:04:39;;;;;;;17.90;12.00;;;;;;;;;;5091859;28;20027;-66
2021/04/22 08:07:05;;;;;;;22.08;12.80;;;;;;;;;;5092835;28;20027;-66
2021/04/22 08:09:33;;;;;;;23.63;12.25;;;;;;;;;;5094386;28;20089;-65
2021/04/22 08:12:00;;;;;;;24.85;12.15;;;;;;;;;;5101949;28;20024;-68
2021/04/22 08:14:26;;;;;;;19.48;12.23;;;;;;;;;;5104732;28;20032;-66
2021/04/22 08:16:52;;;;;;;21.52;11.98;;;;;;;;;;5106568;28;20036;-65
2021/04/22 08:19:18;;;;;;;17.15;11.43;;;;;;;;;;5098682;28;20066;-64
2021/04/22 08:21:44;;;;;;;20.33;12.55;;;;;;;;;;5113481;28;20019;-66
2021/04/22 08:24:10;;;;;;;19.50;10.85;;;;;;;;;;5106212;28;20085;-67
2021/04/22 08:26:39;;;;;;;21.30;10.70;;;;;;;;;;5101928;28;20024;-65
2021/04/22 08:29:06;;;;;;;14.25;9.75;;;;;;;;;;5096676;28;20410;-66
2021/04/22 08:31:32;;;;;;;15.80;8.90;;;;;;;;;;5105405;28;20427;-66
2021/04/22 08:34:01;;;;;;;15.82;9.57;;;;;;;;;;5098518;28;20031;-65
2021/04/22 08:36:27;;;;;;;22.73;9.88;;;;;;;;;;5092437;28;20035;-63
2021/04/22 08:38:53;;;;;;;17.15;9.85;;;;;;;;;;5110261;28;20061;-65
2021/04/22 08:41:20;;;;;;;19.80;10.02;;;;;;;;;;5107956;28;20490;-67
2021/04/22 08:43:47;;;;;;;17.65;10.43;;;;;;;;;;5096922;28;20027;-66
2021/04/22 08:46:14;;;;;;;18.48;9.95;;;;;;;;;;5104440;28;20456;-66
2021/04/22 08:48:43;;;;;;;27.63;11.00;;;;;;;;;;5099847;28;20036;-65
2021/04/22 08:51:10;;;;;;;20.08;9.55;;;;;;;;;;5102377;28;20036;-67
2021/04/22 08:53:39;;;;;;;19.02;8.50;;;;;;;;;;5091392;28;20419;-65
2021/04/22 08:56:06;;;;;;;16.05;8.65;;;;;;;;;;5111990;28;20040;-66
2021/04/22 08:58:32;;;;;;;17.60;9.35;;;;;;;;;;5112181;28;20039;-66
2021/04/22 09:01:00;;;;;;;14.20;8.40;;;;;;;;;;5107951;28;20040;-67
2021/04/22 09:03:26;;;;;;;15.35;9.40;;;;;;;;;;5093851;28;20097;-64
2021/04/22 09:05:52;;;;;;;15.77;8.90;;;;;;;;;;5110647;28;20593;-66
2021/04/22 09:08:20;;;;;;;14.40;7.68;;;;;;;;;;5110553;28;20128;-67
2021/04/22 09:10:47;;;;;;;13.30;7.75;;;;;;;;;;5105142;28;20037;-67
2021/04/22 09:13:15;;;;;;;14.25;8.27;;;;;;;;;;5109320;28;20059;-66
2021/04/22 09:15:42;;;;;;;14.25;6.72;;;;;;;;;;5110929;28;20028;-65
2021/04/22 09:18:10;;;;;;;18.58;8.38;;;;;;;;;;5094425;28;20024;-66
2021/04/22 09:20:40;;;;;;;15.40;8.45;;;;;;;;;;5092491;28;20028;-66
2021/04/22 09:23:33;;;;;;;18.38;7.47;;;;;;;;;;5107235;28;20039;-67
2021/04/22 09:26:03;;;;;;;16.85;7.57;;;;;;;;;;5094517;28;20036;-68
2021/04/22 09:28:48;;;;;;;20.95;8.07;;;;;;;;;;5097379;28;20046;-67
2021/04/22 09:31:25;;;;;;;13.50;7.80;;;;;;;;;;5102022;28;20031;-66
2021/04/22 09:34:03;;;;;;;12.60;7.80;;;;;;;;;;5094941;28;20021;-67
2021/04/22 09:36:40;;;;;;;11.52;8.43;;;;;;;;;;5107805;28;20027;-66
2021/04/22 09:39:06;;;;;;;11.35;7.10;;;;;;;;;;5091144;28;20031;-66
2021/04/22 09:41:35;;;;;;;13.80;7.90;;;;;;;;;;5099262;28;20027;-66
2021/04/22 09:44:05;;;;;;;14.32;7.13;;;;;;;;;;5100364;28;20478;-66
2021/04/22 09:46:32;;;;;;;13.32;7.10;;;;;;;;;;5107525;28;20538;-65
2021/04/22 09:48:59;;;;;;;10.07;7.35;;;;;;;;;;5101012;28;20024;-66
2021/04/22 09:51:30;;;;;;;13.85;8.27;;;;;;;;;;5092990;28;20109;-67
2021/04/22 09:54:31;;;;;;;13.57;7.18;;;;;;;;;;5100258;28;20135;-65
2021/04/22 09:56:57;;;;;;;13.77;7.60;;;;;;;;;;5000298;28;20029;-67
2021/04/22 09:59:25;;;;;;;12.23;7.20;;;;;;;;;;5084544;28;20073;-68
2021/04/22 10:02:01;;;;;;;11.90;7.57;;;;;;;;;;5098184;28;20038;-66
2021/04/22 10:04:34;;;;;;;15.38;7.20;;;;;;;;;;5102971;28;20024;-67
2021/04/22 10:07:00;;;;;;;16.33;7.50;;;;;;;;;;5100941;28;20469;-66
2021/04/22 10:09:36;;;;;;;13.13;7.63;;;;;;;;;;5099656;28;20047;-67
2021/04/22 10:12:04;;;;;;;11.60;7.22;;;;;;;;;;5095968;28;20443;-66
2021/04/22 10:14:34;;;;;;;13.00;6.88;;;;;;;;;;5103631;28;20024;-65
2021/04/22 10:17:00;;;;;;;15.98;7.28;;;;;;;;;;5096580;28;20052;-64
2021/04/22 10:19:26;;;;;;;19.35;6.53;;;;;;;;;;5100875;28;20111;-67
2021/04/22 10:21:52;;;;;;;15.07;6.68;;;;;;;;;;5077941;28;20036;-65
2021/04/22 10:24:25;;;;;;;13.98;6.65;;;;;;;;;;5095060;28;20148;-65
2021/04/22 10:26:57;;;;;;;18.35;7.20;;;;;;;;;;5091142;28;20027;-66
2021/04/22 10:29:23;;;;;;;12.13;6.32;;;;;;;;;;5100343;28;20505;-67
2021/04/22 10:31:49;;;;;;;12.38;6.88;;;;;;;;;;5095191;28;20363;-65
2021/04/22 10:34:16;;;;;;;12.15;5.80;;;;;;;;;;5093226;28;20024;-65
2021/04/22 10:36:42;;;;;;;10.65;7.20;;;;;;;;;;5095658;28;20031;-65
2021/04/22 10:39:09;;;;;;;13.15;6.47;;;;;;;;;;5090734;28;20149;-66
2021/04/22 10:41:35;;;;;;;18.27;7.60;;;;;;;;;;5105178;28;20024;-65
2021/04/22 10:44:02;;;;;;;14.98;8.70;;;;;;;;;;5106735;28;20120;-67
2021/04/22 10:46:28;;;;;;;12.68;6.90;;;;;;;;;;5093611;28;20028;-66
2021/04/22 10:48:55;;;;;;;16.52;8.00;;;;;;;;;;5092830;28;20031;-66
2021/04/22 10:51:21;;;;;;;15.18;7.75;;;;;;;;;;5101438;28;20375;-67
2021/04/22 10:53:47;;;;;;;15.80;8.45;;;;;;;;;;5095681;28;20107;-67
2021/04/22 10:56:24;;;;;;;15.43;8.02;;;;;;;;;;5102291;28;20035;-66
2021/04/22 10:58:50;;;;;;;15.43;7.80;;;;;;;;;;5106591;28;20151;-66
2021/04/22 11:01:16;;;;;;;13.75;7.13;;;;;;;;;;5094483;28;20031;-67
2021/04/22 11:03:42;;;;;;;18.15;7.25;;;;;;;;;;5095208;28;20105;-67
2021/04/22 11:06:19;;;;;;;13.95;7.10;;;;;;;;;;5101951;28;20558;-67
2021/04/22 11:08:47;;;;;;;11.55;8.00;;;;;;;;;;5096909;28;20289;-65
2021/04/22 11:11:19;;;;;;;10.77;7.72;;;;;;;;;;5091042;28;20032;-66
2021/04/22 11:13:45;;;;;;;11.73;7.50;;;;;;;;;;5074624;28;20378;-66
2021/04/22 11:16:11;;;;;;;17.38;8.40;;;;;;;;;;5095017;28;20027;-66
2021/04/22 11:18:37;;;;;;;16.15;8.85;;;;;;;;;;5087487;28;20039;-64
2021/04/22 11:21:05;;;;;;;15.10;7.70;;;;;;;;;;5094306;28;20498;-66
2021/04/22 11:23:41;;;;;;;14.18;7.75;;;;;;;;;;5101628;28;20032;-65
2021/04/22 11:26:17;;;;;;;16.90;8.13;;;;;;;;;;5106253;28;20038;-66
2021/04/22 11:28:43;;;;;;;12.77;8.48;;;;;;;;;;5104651;28;20034;-67
2021/04/22 11:31:11;;;;;;;23.23;10.10;;;;;;;;;;5099951;28;20172;-67
2021/04/22 11:33:37;;;;;;;13.25;8.00;;;;;;;;;;5086009;28;20035;-66
2021/04/22 11:36:17;;;;;;;15.85;8.98;;;;;;;;;;5083486;28;20716;-66
2021/04/22 11:38:54;;;;;;;12.48;7.60;;;;;;;;;;5102596;28;20027;-67
2021/04/22 11:41:21;;;;;;;13.05;7.47;;;;;;;;;;5097820;28;20059;-66
2021/04/22 11:43:47;;;;;;;13.00;8.07;;;;;;;;;;5104299;28;20076;-65
2021/04/22 11:46:13;;;;;;;15.02;7.95;;;;;;;;;;5104301;28;20106;-66
2021/04/22 11:48:40;;;;;;;12.70;8.63;;;;;;;;;;5091561;28;20028;-65
2021/04/22 11:51:07;;;;;;;12.32;7.38;;;;;;;;;;5091992;28;20082;-65
2021/04/22 11:53:34;;;;;;;10.75;7.78;;;;;;;;;;5105038;28;20048;-66
2021/04/22 11:56:01;;;;;;;14.15;7.97;;;;;;;;;;5103143;28;20094;-65
2021/04/22 11:58:27;;;;;;;14.20;7.65;;;;;;;;;;5100897;28;20028;-66
2021/04/22 12:00:58;;;;;;;15.15;7.65;;;;;;;;;;5094025;28;20034;-67
2021/04/22 12:03:25;;;;;;;10.52;7.25;;;;;;;;;;5096816;28;20085;-65
2021/04/22 12:05:52;;;;;;;12.90;8.70;;;;;;;;;;5100362;28;20055;-66
2021/04/22 12:08:18;;;;;;;17.23;7.38;;;;;;;;;;5108486;28;20052;-66
2021/04/22 12:10:48;;;;;;;14.40;7.97;;;;;;;;;;5097725;28;20035;-65
2021/04/22 12:13:15;;;;;;;14.02;8.30;;;;;;;;;;5090763;28;20390;-65
2021/04/22 12:15:43;;;;;;;13.02;7.70;;;;;;;;;;5108161;28;20028;-65
2021/04/22 12:18:11;;;;;;;13.43;8.18;;;;;;;;;;5107272;28;20501;-65
2021/04/22 12:20:38;;;;;;;13.40;8.88;;;;;;;;;;5097376;28;20134;-66
2021/04/22 12:23:04;;;;;;;14.23;8.75;;;;;;;;;;5092752;28;20031;-65
2021/04/22 12:25:30;;;;;;;12.65;7.95;;;;;;;;;;5098401;28;20745;-65
2021/04/22 12:28:05;;;;;;;13.98;8.75;;;;;;;;;;5092855;28;20040;-66
2021/04/22 12:30:35;;;;;;;15.57;9.13;;;;;;;;;;5100368;28;20390;-64
2021/04/22 12:33:01;;;;;;;12.18;8.43;;;;;;;;;;5106058;28;20020;-66
2021/04/22 12:35:29;;;;;;;13.00;8.95;;;;;;;;;;5102325;28;20047;-65
2021/04/22 12:37:55;;;;;;;19.88;8.13;;;;;;;;;;5109002;28;20095;-67
2021/04/22 12:40:22;;;;;;;13.35;9.73;;;;;;;;;;5079960;28;20737;-66
2021/04/22 12:42:49;;;;;;;12.77;8.95;;;;;;;;;;5108193;28;20030;-65
2021/04/22 12:45:17;;;;;;;12.55;8.75;;;;;;;;;;5107835;28;20553;-66
2021/04/22 12:47:57;;;;;;;19.98;9.05;;;;;;;;;;5101515;28;20020;-67
2021/04/22 12:50:23;;;;;;;14.20;10.05;;;;;;;;;;5100603;28;20019;-66
2021/04/22 12:52:50;;;;;;;13.10;9.07;;;;;;;;;;5104518;28;20028;-66
2021/04/22 12:55:22;;;;;;;16.20;10.60;;;;;;;;;;5103792;28;20470;-64
2021/04/22 12:57:52;;;;;;;14.13;9.20;;;;;;;;;;5097603;28;20056;-67
2021/04/22 13:00:25;;;;;;;13.40;7.97;;;;;;;;;;5092305;28;20040;-67
2021/04/22 13:02:51;;;;;;;11.88;8.65;;;;;;;;;;5095746;28;20062;-66
2021/04/22 13:05:17;;;;;;;15.15;8.65;;;;;;;;;;5098342;28;20043;-67
2021/04/22 13:07:44;;;;;;;13.32;8.25;;;;;;;;;;5093032;28;20036;-67
2021/04/22 13:10:14;;;;;;;15.90;9.27;;;;;;;;;;5091844;28;20039;-66
2021/04/22 13:12:41;;;;;;;11.73;9.02;;;;;;;;;;5097759;28;20023;-64
2021/04/22 13:15:10;;;;;;;12.85;9.15;;;;;;;;;;5106454;28;20027;-68
2021/04/22 13:17:38;;;;;;;11.88;8.40;;;;;;;;;;5108398;28;20236;-68
2021/04/22 13:20:05;;;;;;;14.70;9.65;;;;;;;;;;5092634;28;20032;-67
2021/04/22 13:22:31;;;;;;;13.02;9.15;;;;;;;;;;5100517;28;20616;-67
2021/04/22 13:25:06;;;;;;;11.77;8.20;;;;;;;;;;5116345;28;20561;-67
2021/04/22 13:27:33;;;;;;;11.63;7.45;;;;;;;;;;5100845;28;20028;-66
2021/04/22 13:30:00;;;;;;;15.00;7.88;;;;;;;;;;5100111;28;20023;-68
2021/04/22 13:32:30;;;;;;;14.07;7.50;;;;;;;;;;5105923;28;20035;-67
2021/04/22 13:34:57;;;;;;;10.93;7.78;;;;;;;;;;5089764;28;20161;-67
2021/04/22 13:37:23;;;;;;;11.57;8.00;;;;;;;;;;5103600;28;20097;-67
2021/04/22 13:39:51;;;;;;;9.10;6.75;;;;;;;;;;5099552;28;20681;-67
2021/04/22 13:42:21;;;;;;;9.55;7.30;;;;;;;;;;5095058;28;20436;-67
2021/04/22 13:44:47;;;;;;;9.50;7.32;;;;;;;;;;5101471;28;20032;-68
2021/04/22 13:47:14;;;;;;;11.43;8.70;;;;;;;;;;5103856;28;20093;-65
2021/04/22 13:49:42;;;;;;;9.73;7.35;;;;;;;;;;5100213;28;20028;-67
2021/04/22 13:52:09;;;;;;;14.85;7.50;;;;;;;;;;5097797;28;20020;-66
2021/04/22 13:54:40;;;;;;;11.02;6.70;;;;;;;;;;5099744;28;20027;-69
2021/04/22 13:57:15;;;;;;;11.43;6.93;;;;;;;;;;5097825;28;20026;-67
2021/04/22 13:59:42;;;;;;;11.85;6.43;;;;;;;;;;5094239;28;20062;-66
2021/04/22 14:02:08;;;;;;;11.02;6.47;;;;;;;;;;5101628;28;20486;-66
2021/04/22 14:04:35;;;;;;;9.30;5.72;;;;;;;;;;5098981;28;20027;-67
2021/04/22 14:07:01;;;;;;;7.57;5.50;;;;;;;;;;5101612;28;20030;-66
2021/04/22 14:09:29;;;;;;;6.75;5.07;;;;;;;;;;5092818;28;20132;-67
2021/04/22 14:11:56;;;;;;;7.15;4.90;;;;;;;;;;5090029;28;20435;-67
2021/04/22 14:14:25;;;;;;;7.13;5.05;;;;;;;;;;5093605;28;20128;-68
2021/04/22 14:16:51;;;;;;;10.98;5.40;;;;;;;;;;5102344;28;20106;-66
2021/04/22 14:19:22;;;;;;;9.68;5.07;;;;;;;;;;5104009;28;20107;-67
2021/04/22 14:21:48;;;;;;;6.72;5.32;;;;;;;;;;5099709;28;20020;-67
2021/04/22 14:24:15;;;;;;;7.57;5.43;;;;;;;;;;5090017;28;20020;-68